createdAt,value
2022-10-21T00:01:16.291Z,7.00
2022-10-21T00:04:20.886Z,7.00
2022-10-21T00:07:25.014Z,6.68
2022-10-21T00:10:29.305Z,6.60
2022-10-21T00:13:38.670Z,6.32
2022-10-21T00:16:43.248Z,7.07
2022-10-21T00:19:47.982Z,6.68
2022-10-21T00:22:52.245Z,6.82
2022-10-21T00:25:58.661Z,8.48
2022-10-21T00:29:03.383Z,7.72
2022-10-21T00:32:07.814Z,5.95
2022-10-21T00:35:12.178Z,6.65
2022-10-21T00:38:16.683Z,7.13
2022-10-21T00:41:21.248Z,9.45
2022-10-21T00:44:27.704Z,5.68
2022-10-21T00:48:12.210Z,6.70
2022-10-21T00:54:26.372Z,8.60
2022-10-21T00:57:33.214Z,6.45
2022-10-21T01:00:37.537Z,6.00
2022-10-21T01:03:42.011Z,5.93
2022-10-21T01:06:47.220Z,6.03
2022-10-21T01:09:51.918Z,5.65
2022-10-21T01:13:13.018Z,6.35
2022-10-21T01:16:49.239Z,5.65
2022-10-21T01:20:18.726Z,6.78
2022-10-21T01:23:54.310Z,6.45
2022-10-21T01:27:55.268Z,4.78
2022-10-21T01:31:29.781Z,5.60
2022-10-21T01:34:43.872Z,5.75
2022-10-21T01:38:24.418Z,5.75
2022-10-21T01:41:33.674Z,6.13
2022-10-21T01:44:49.910Z,5.60
2022-10-21T01:48:01.548Z,4.43
2022-10-21T01:51:09.082Z,6.20
2022-10-21T01:54:43.652Z,6.13
2022-10-21T01:57:56.612Z,8.60
2022-10-21T02:01:04.268Z,6.00
2022-10-21T02:04:12.307Z,6.22
2022-10-21T02:07:16.635Z,6.90
2022-10-21T02:10:22.761Z,6.18
2022-10-21T02:13:56.610Z,6.38
2022-10-21T02:17:01.470Z,6.63
2022-10-21T02:20:11.459Z,6.85
2022-10-21T02:23:19.065Z,6.45
2022-10-21T02:26:27.892Z,6.43
2022-10-21T02:29:40.316Z,6.78
2022-10-21T02:33:21.781Z,6.55
2022-10-21T02:36:39.787Z,7.22
2022-10-21T02:39:52.440Z,6.38
2022-10-21T02:43:24.044Z,7.80
2022-10-21T02:46:41.368Z,8.07
2022-10-21T02:49:46.207Z,5.90
2022-10-21T02:52:50.351Z,6.78
2022-10-21T02:55:54.561Z,6.07
2022-10-21T02:58:59.084Z,6.60
2022-10-21T03:02:03.563Z,6.85
2022-10-21T03:05:09.665Z,8.20
2022-10-21T03:08:14.034Z,7.20
2022-10-21T03:11:18.223Z,6.88
2022-10-21T03:14:22.650Z,6.35
2022-10-21T03:17:27.077Z,9.10
2022-10-21T03:20:31.902Z,6.97
2022-10-21T03:23:36.013Z,7.80
2022-10-21T03:26:40.514Z,6.75
2022-10-21T03:29:45.234Z,7.40
2022-10-21T03:32:49.868Z,6.70
2022-10-21T03:35:54.136Z,7.72
2022-10-21T03:38:58.352Z,6.85
2022-10-21T03:42:02.692Z,5.22
2022-10-21T03:45:07.619Z,5.70
2022-10-21T03:48:12.458Z,5.15
2022-10-21T03:51:17.352Z,6.35
2022-10-21T03:54:21.484Z,5.43
2022-10-21T03:57:25.911Z,5.60
2022-10-21T04:00:31.680Z,6.25
2022-10-21T04:03:36.480Z,5.47
2022-10-21T04:06:41.056Z,6.65
2022-10-21T04:09:45.820Z,6.85
2022-10-21T04:12:50.007Z,6.22
2022-10-21T04:15:59.741Z,6.90
2022-10-21T04:19:04.233Z,5.80
2022-10-21T04:22:08.723Z,7.32
2022-10-21T04:25:13.385Z,7.13
2022-10-21T04:28:17.971Z,6.13
2022-10-21T04:31:22.358Z,6.22
2022-10-21T04:34:26.796Z,5.85
2022-10-21T04:37:30.890Z,5.93
2022-10-21T04:40:35.448Z,6.80
2022-10-21T04:43:39.855Z,6.57
2022-10-21T04:46:44.418Z,7.47
2022-10-21T04:49:48.942Z,7.07
2022-10-21T04:52:53.347Z,6.40
2022-10-21T04:55:57.545Z,7.20
2022-10-21T04:59:02.030Z,6.82
2022-10-21T05:02:06.532Z,6.03
2022-10-21T05:05:11.092Z,5.70
2022-10-21T05:08:15.274Z,5.93
2022-10-21T05:11:19.907Z,6.10
2022-10-21T05:14:24.414Z,6.43
2022-10-21T05:17:29.084Z,7.13
2022-10-21T05:20:33.458Z,6.50
2022-10-21T05:23:37.429Z,5.57
2022-10-21T05:26:41.756Z,5.80
2022-10-21T05:29:46.301Z,7.32
2022-10-21T05:32:50.621Z,6.00
2022-10-21T05:36:06.874Z,6.15
2022-10-21T05:39:11.464Z,6.32
2022-10-21T05:42:16.302Z,5.68
2022-10-21T05:45:21.062Z,4.55
2022-10-21T05:48:25.553Z,5.30
2022-10-21T05:51:29.664Z,7.30
2022-10-21T05:54:34.047Z,6.13
2022-10-21T05:57:39.468Z,4.97
2022-10-21T06:00:44.111Z,5.55
2022-10-21T06:03:48.469Z,4.90
2022-10-21T06:06:53.185Z,5.30
2022-10-21T06:09:57.780Z,4.32
2022-10-21T06:13:02.190Z,4.88
2022-10-21T06:16:08.130Z,3.90
2022-10-21T06:19:12.368Z,4.78
2022-10-21T06:22:16.844Z,5.38
2022-10-21T06:25:21.743Z,3.67
2022-10-21T06:28:29.139Z,4.30
2022-10-21T06:31:33.480Z,5.47
2022-10-21T06:34:38.958Z,6.15
2022-10-21T06:37:43.507Z,5.80
2022-10-21T06:40:48.821Z,4.68
2022-10-21T06:43:53.187Z,4.60
2022-10-21T06:46:57.535Z,4.82
2022-10-21T06:50:03.492Z,4.13
2022-10-21T06:53:08.332Z,4.68
2022-10-21T06:56:16.659Z,4.25
2022-10-21T06:59:20.983Z,5.85
2022-10-21T07:02:25.587Z,3.85
2022-10-21T07:05:30.087Z,5.05
2022-10-21T07:08:46.656Z,4.88
2022-10-21T07:11:51.402Z,4.35
2022-10-21T07:14:56.428Z,4.97
2022-10-21T07:18:01.104Z,3.83
2022-10-21T07:21:08.490Z,5.25
2022-10-21T07:24:12.991Z,5.88
2022-10-21T07:27:17.168Z,3.88
2022-10-21T07:30:21.791Z,6.13
2022-10-21T07:33:26.449Z,5.45
2022-10-21T07:36:36.021Z,5.40
2022-10-21T07:39:40.731Z,4.25
2022-10-21T07:42:45.146Z,5.03
2022-10-21T07:45:49.876Z,4.72
2022-10-21T07:48:55.687Z,4.45
2022-10-21T07:52:00.188Z,5.78
2022-10-21T07:55:05.166Z,4.78
2022-10-21T07:58:09.678Z,4.57
2022-10-21T08:01:16.658Z,5.15
2022-10-21T08:04:29.923Z,5.75
2022-10-21T08:07:35.251Z,4.93
2022-10-21T08:10:41.018Z,5.15
2022-10-21T08:13:45.684Z,4.90
2022-10-21T08:16:54.492Z,5.95
2022-10-21T08:19:59.436Z,6.72
2022-10-21T08:23:04.196Z,5.85
2022-10-21T08:26:13.190Z,5.05
2022-10-21T08:29:18.369Z,4.82
2022-10-21T08:32:22.843Z,5.20
2022-10-21T08:35:28.482Z,5.20
2022-10-21T08:38:33.209Z,5.10
2022-10-21T08:41:55.322Z,4.53
2022-10-21T08:45:07.654Z,4.38
2022-10-21T08:48:21.989Z,4.07
2022-10-21T08:51:33.202Z,4.85
2022-10-21T08:54:42.802Z,4.10
2022-10-21T08:57:49.173Z,4.25
2022-10-21T09:01:09.644Z,4.75
2022-10-21T09:04:43.325Z,5.03
2022-10-21T09:08:17.385Z,4.13
2022-10-21T09:11:49.539Z,4.70
2022-10-21T09:15:19.219Z,4.00
2022-10-21T09:19:01.848Z,5.47
2022-10-21T09:22:53.325Z,4.55
2022-10-21T09:26:10.903Z,4.57
2022-10-21T09:29:37.727Z,4.03
2022-10-21T09:32:49.742Z,4.70
2022-10-21T09:36:23.959Z,4.20
2022-10-21T09:39:45.695Z,4.90
2022-10-21T09:42:56.029Z,4.20
2022-10-21T09:46:00.556Z,3.92
2022-10-21T09:49:41.429Z,3.78
2022-10-21T09:52:35.341Z,4.55
2022-10-21T09:55:40.690Z,4.75
2022-10-21T09:59:18.576Z,7.00
2022-10-21T10:02:36.162Z,5.53
2022-10-21T10:05:44.465Z,3.60
2022-10-21T10:08:49.162Z,4.40
2022-10-21T10:12:12.208Z,5.32
2022-10-21T10:15:35.257Z,4.25
2022-10-21T10:18:40.467Z,2.97
2022-10-21T10:21:48.217Z,6.00
2022-10-21T10:24:52.465Z,3.67
2022-10-21T10:28:02.315Z,4.65
2022-10-21T10:31:06.986Z,4.05
2022-10-21T10:34:24.444Z,4.45
2022-10-21T10:37:36.078Z,3.70
2022-10-21T10:40:43.609Z,3.53
2022-10-21T10:43:55.970Z,4.10
2022-10-21T10:47:02.519Z,4.28
2022-10-21T10:50:46.844Z,4.53
2022-10-21T10:54:17.830Z,3.97
2022-10-21T10:57:39.069Z,2.85
2022-10-21T11:00:53.656Z,4.05
2022-10-21T11:04:11.439Z,4.90
2022-10-21T11:07:29.148Z,5.68
2022-10-21T11:11:04.062Z,4.25
2022-10-21T11:14:17.742Z,5.03
2022-10-21T11:17:41.150Z,4.57
2022-10-21T11:21:21.286Z,5.03
2022-10-21T11:24:59.736Z,4.38
2022-10-21T11:28:28.980Z,2.92
2022-10-21T11:32:12.466Z,4.15
2022-10-21T11:35:37.110Z,4.07
2022-10-21T11:39:22.094Z,3.83
2022-10-21T11:42:40.193Z,3.70
2022-10-21T11:46:30.025Z,4.57
2022-10-21T11:50:00.157Z,2.85
2022-10-21T11:53:51.683Z,4.47
2022-10-21T11:57:24.151Z,3.83
2022-10-21T12:00:40.707Z,3.85
2022-10-21T12:04:06.393Z,2.35
2022-10-21T12:08:00.221Z,4.30
2022-10-21T12:11:17.811Z,4.13
2022-10-21T12:14:47.379Z,7.22
2022-10-21T12:17:52.775Z,3.20
2022-10-21T12:20:59.720Z,3.92
2022-10-21T12:24:10.332Z,3.83
2022-10-21T12:27:31.967Z,2.60
2022-10-21T12:31:23.734Z,3.65
2022-10-21T12:34:29.395Z,3.10
2022-10-21T12:37:51.896Z,3.33
2022-10-21T12:41:24.110Z,3.40
2022-10-21T12:44:29.287Z,3.50
2022-10-21T12:47:42.638Z,2.35
2022-10-21T12:50:58.274Z,4.10
2022-10-21T12:54:02.932Z,3.78
2022-10-21T12:57:11.086Z,3.95
2022-10-21T13:00:27.848Z,2.25
2022-10-21T13:03:52.570Z,2.70
2022-10-21T13:07:02.247Z,3.20
2022-10-21T13:10:08.129Z,2.70
2022-10-21T13:13:49.960Z,3.22
2022-10-21T13:17:22.687Z,2.95
2022-10-21T13:20:27.846Z,3.13
2022-10-21T13:23:37.744Z,5.60
2022-10-21T13:26:53.151Z,5.35
2022-10-21T13:29:59.365Z,3.60
2022-10-21T13:33:17.039Z,2.85
2022-10-21T13:36:42.840Z,3.25
2022-10-21T13:39:51.062Z,2.05
2022-10-21T13:43:12.088Z,2.58
2022-10-21T13:46:43.523Z,2.55
2022-10-21T13:49:55.313Z,4.38
2022-10-21T13:53:05.746Z,2.60
2022-10-21T13:56:22.886Z,2.42
2022-10-21T13:59:29.970Z,3.05
2022-10-21T14:02:34.516Z,3.67
2022-10-21T14:05:48.825Z,4.10
2022-10-21T14:08:55.332Z,2.55
2022-10-21T14:12:05.594Z,3.58
2022-10-21T14:15:21.896Z,4.13
2022-10-21T14:18:38.751Z,2.63
2022-10-21T14:21:47.296Z,1.42
2022-10-21T14:25:01.744Z,2.25
2022-10-21T14:31:12.756Z,2.47
2022-10-21T14:34:31.557Z,2.50
2022-10-21T14:37:46.699Z,2.17
2022-10-21T14:41:00.463Z,3.05
2022-10-21T14:44:21.381Z,1.85
2022-10-21T14:47:27.287Z,2.40
2022-10-21T14:50:32.288Z,1.40
2022-10-21T14:53:59.897Z,2.08
2022-10-21T14:57:04.654Z,2.72
2022-10-21T15:00:33.070Z,3.25
2022-10-21T15:03:42.917Z,2.63
2022-10-21T15:07:01.541Z,3.95
2022-10-21T15:10:07.193Z,3.10
2022-10-21T15:13:20.698Z,2.72
2022-10-21T15:16:30.306Z,2.35
2022-10-21T15:19:37.741Z,2.20
2022-10-21T15:22:42.133Z,4.25
2022-10-21T15:25:46.791Z,2.45
2022-10-21T15:28:53.140Z,1.63
2022-10-21T15:31:58.637Z,1.70
2022-10-21T15:35:13.368Z,2.45
2022-10-21T15:38:18.138Z,4.35
2022-10-21T15:41:26.009Z,1.42
2022-10-21T15:44:33.193Z,2.42
2022-10-21T15:47:37.885Z,2.67
2022-10-21T15:50:44.387Z,3.13
2022-10-21T15:53:48.865Z,4.80
2022-10-21T15:56:54.907Z,5.65
2022-10-21T15:59:59.447Z,1.58
2022-10-21T16:03:04.129Z,1.45
2022-10-21T16:06:20.369Z,2.35
2022-10-21T16:09:29.676Z,2.30
2022-10-21T16:12:34.517Z,3.70
2022-10-21T16:15:38.971Z,4.30
2022-10-21T16:18:43.595Z,2.05
2022-10-21T16:21:49.306Z,2.30
2022-10-21T16:24:53.744Z,1.35
2022-10-21T16:27:58.457Z,2.40
2022-10-21T16:31:04.530Z,0.95
2022-10-21T16:34:09.298Z,1.73
2022-10-21T16:37:27.454Z,2.55
2022-10-21T16:40:35.087Z,2.25
2022-10-21T16:43:40.569Z,2.78
2022-10-21T16:46:55.415Z,1.98
2022-10-21T16:50:02.726Z,3.33
2022-10-21T16:53:14.826Z,3.15
2022-10-21T16:56:19.066Z,3.25
2022-10-21T16:59:23.731Z,2.20
2022-10-21T17:02:28.589Z,1.67
2022-10-21T17:08:38.516Z,2.65
2022-10-21T17:11:43.369Z,3.63
2022-10-21T17:14:47.758Z,2.47
2022-10-21T17:17:52.196Z,2.88
2022-10-21T17:20:56.452Z,2.88
2022-10-21T17:24:03.157Z,3.65
2022-10-21T17:27:07.759Z,2.28
2022-10-21T17:30:12.718Z,1.55
2022-10-21T17:33:16.983Z,1.85
2022-10-21T17:36:21.558Z,1.38
2022-10-21T17:39:26.088Z,1.85
2022-10-21T17:42:30.850Z,2.67
2022-10-21T17:45:35.347Z,1.80
2022-10-21T17:48:39.675Z,1.98
2022-10-21T17:51:43.995Z,1.73
2022-10-21T17:54:48.378Z,1.75
2022-10-21T17:57:53.085Z,1.73
2022-10-21T18:00:58.634Z,1.33
2022-10-21T18:04:03.144Z,4.13
2022-10-21T18:07:09.752Z,2.35
2022-10-21T18:10:14.691Z,4.07
2022-10-21T18:13:19.189Z,2.78
2022-10-21T18:16:24.531Z,1.73
2022-10-21T18:19:28.767Z,2.80
2022-10-21T18:22:33.587Z,1.98
2022-10-21T18:25:39.968Z,1.83
2022-10-21T18:28:45.379Z,1.75
2022-10-21T18:31:49.648Z,3.78
2022-10-21T18:34:54.216Z,2.60
2022-10-21T18:37:58.951Z,5.60
2022-10-21T18:41:19.579Z,3.35
2022-10-21T18:44:24.630Z,2.85
2022-10-21T18:47:28.925Z,2.17
2022-10-21T18:50:37.921Z,2.70
2022-10-21T18:53:47.141Z,3.30
2022-10-21T18:56:54.133Z,7.93
2022-10-21T18:59:59.105Z,2.25
2022-10-21T19:03:04.222Z,5.50
2022-10-21T19:06:30.521Z,3.80
2022-10-21T19:09:35.190Z,3.55
2022-10-21T19:12:39.772Z,3.50
2022-10-21T19:15:44.434Z,6.15
2022-10-21T19:18:49.195Z,7.10
2022-10-21T19:21:54.427Z,6.05
2022-10-21T19:24:58.966Z,6.65
2022-10-21T19:28:03.392Z,6.13
2022-10-21T19:31:08.737Z,3.65
2022-10-21T19:34:23.013Z,3.10
2022-10-21T19:37:27.239Z,4.13
2022-10-21T19:40:31.507Z,7.20
2022-10-21T19:43:36.277Z,2.33
2022-10-21T19:46:40.974Z,2.85
2022-10-21T19:49:45.803Z,3.47
2022-10-21T19:52:50.123Z,2.72
2022-10-21T19:55:55.575Z,2.67
2022-10-21T19:59:02.473Z,4.53
2022-10-21T20:02:11.053Z,3.08
2022-10-21T20:05:15.590Z,4.15
2022-10-21T20:08:20.502Z,2.78
2022-10-21T20:11:26.958Z,2.05
2022-10-21T20:14:31.386Z,3.08
2022-10-21T20:17:35.711Z,3.10
2022-10-21T20:20:41.811Z,3.15
2022-10-21T20:23:45.991Z,3.60
2022-10-21T20:26:51.378Z,4.22
2022-10-21T20:29:57.288Z,5.40
2022-10-21T20:33:01.625Z,7.43
2022-10-21T20:36:26.246Z,7.82
2022-10-21T20:39:30.894Z,8.45
2022-10-21T20:42:35.853Z,12.60
2022-10-21T20:45:40.303Z,9.85
2022-10-21T20:48:50.549Z,9.77
2022-10-21T20:51:55.049Z,9.57
2022-10-21T20:54:59.619Z,11.07
2022-10-21T20:58:04.321Z,9.82
2022-10-21T21:01:10.790Z,9.40
2022-10-21T21:04:17.651Z,12.07
2022-10-21T21:07:22.036Z,10.85
2022-10-21T21:10:26.556Z,13.02
2022-10-21T21:13:31.206Z,13.63
2022-10-21T21:16:35.750Z,11.35
2022-10-21T21:19:40.370Z,8.75
2022-10-21T21:22:44.795Z,9.15
2022-10-21T21:25:49.022Z,7.88
2022-10-21T21:28:53.906Z,9.38
2022-10-21T21:31:58.457Z,7.60
2022-10-21T21:35:05.304Z,8.57
2022-10-21T21:38:10.821Z,7.82
2022-10-21T21:41:16.692Z,10.27
2022-10-21T21:44:21.574Z,6.97
2022-10-21T21:47:25.855Z,7.18
2022-10-21T21:50:30.438Z,7.28
2022-10-21T21:53:34.966Z,7.78
2022-10-21T21:56:39.463Z,6.55
2022-10-21T21:59:43.941Z,7.93
2022-10-21T22:02:48.216Z,7.85
2022-10-21T22:05:52.498Z,5.75
2022-10-21T22:08:57.574Z,6.20
2022-10-21T22:12:01.867Z,4.57
2022-10-21T22:15:07.029Z,5.63
2022-10-21T22:18:11.556Z,5.45
2022-10-21T22:21:18.258Z,4.43
2022-10-21T22:24:22.650Z,5.88
2022-10-21T22:27:27.324Z,3.80
2022-10-21T22:30:31.500Z,3.65
2022-10-21T22:33:36.936Z,7.90
2022-10-21T22:36:41.682Z,4.15
2022-10-21T22:39:45.997Z,3.65
2022-10-21T22:42:50.270Z,5.10
2022-10-21T22:46:05.084Z,4.13
2022-10-21T22:49:14.410Z,4.22
2022-10-21T22:52:18.752Z,3.35
2022-10-21T22:55:23.161Z,3.55
2022-10-21T22:58:27.258Z,9.90
2022-10-21T23:01:32.691Z,3.60
2022-10-21T23:04:36.977Z,2.53
2022-10-21T23:07:41.371Z,1.88
2022-10-21T23:10:49.124Z,3.05
2022-10-21T23:14:02.835Z,2.72
2022-10-21T23:17:12.242Z,2.13
2022-10-21T23:20:16.927Z,1.65
2022-10-21T23:23:21.969Z,3.20
2022-10-21T23:26:26.986Z,3.53
2022-10-21T23:29:31.296Z,2.95
2022-10-21T23:32:36.095Z,2.88
2022-10-21T23:35:40.618Z,3.30
2022-10-21T23:38:44.954Z,2.20
2022-10-21T23:41:49.372Z,2.20
2022-10-21T23:44:53.557Z,2.53
2022-10-21T23:47:58.071Z,1.60
2022-10-21T23:51:02.545Z,2.53
2022-10-21T23:54:06.973Z,2.40
2022-10-21T23:57:11.529Z,2.70
